Time;durP1;ratioP1;P1;durP2;ratioP2;P2;SDS_P1;SDS_P2;PMS_P1;PMS_P2;Temp;Humidity;BMP_temperature;BMP_pressure;BME280_temperature;BME280_humidity;BME280_pressure;Samples;Min_cycle;Max_cycle;Signal;HPM_P1;HPM_P2
2023/08/06 00:01:46;;;;;;;13.27;9.03;;;15.90;99.90;;;;;;5005259;28;20222;-87
2023/08/06 00:04:13;;;;;;;17.03;9.37;;;15.90;99.90;;;;;;5008735;28;20211;-86
2023/08/06 00:06:40;;;;;;;16.90;10.40;;;15.90;99.90;;;;;;4976030;28;20203;-86
2023/08/06 00:09:07;;;;;;;14.53;9.13;;;15.90;99.90;;;;;;5003951;28;20379;-86
2023/08/06 00:11:34;;;;;;;15.73;10.03;;;15.90;99.90;;;;;;4985911;28;20655;-86
2023/08/06 00:14:01;;;;;;;14.93;8.90;;;15.90;99.90;;;;;;5011430;28;20206;-86
2023/08/06 00:16:28;;;;;;;16.20;9.77;;;15.90;99.90;;;;;;5009881;28;20201;-85
2023/08/06 00:18:55;;;;;;;17.47;9.67;;;15.90;99.90;;;;;;4999025;28;20214;-86
2023/08/06 00:21:21;;;;;;;15.57;9.40;;;15.80;99.90;;;;;;5003604;28;20673;-87
2023/08/06 00:23:48;;;;;;;16.20;9.83;;;15.80;99.90;;;;;;5000574;28;20205;-86
2023/08/06 00:26:32;;;;;;;15.70;9.73;;;15.80;99.90;;;;;;4987645;28;20238;-85
2023/08/06 00:28:59;;;;;;;13.97;9.37;;;15.90;99.90;;;;;;5007920;28;20199;-87
2023/08/06 00:31:26;;;;;;;15.30;8.73;;;15.80;99.90;;;;;;5016148;28;20568;-86
2023/08/06 00:33:53;;;;;;;15.53;9.93;;;15.80;99.90;;;;;;5000559;28;20207;-87
2023/08/06 00:36:19;;;;;;;14.57;9.60;;;15.70;99.90;;;;;;5001064;28;20300;-85
2023/08/06 00:38:46;;;;;;;17.10;10.30;;;15.70;99.90;;;;;;5007715;28;20234;-86
2023/08/06 00:41:13;;;;;;;17.07;10.93;;;15.70;99.90;;;;;;5010753;28;20230;-86
2023/08/06 00:43:40;;;;;;;14.43;9.77;;;15.70;99.90;;;;;;4995735;28;20275;-85
2023/08/06 00:46:07;;;;;;;20.17;11.87;;;15.80;99.90;;;;;;5004792;28;20245;-85
2023/08/06 00:48:34;;;;;;;17.10;10.43;;;15.70;99.90;;;;;;5014104;28;20209;-86
2023/08/06 00:51:01;;;;;;;15.70;10.20;;;15.70;99.90;;;;;;5009680;28;20206;-86
2023/08/06 00:53:28;;;;;;;16.70;10.47;;;15.70;99.90;;;;;;5009410;28;20491;-88
2023/08/06 00:55:55;;;;;;;19.20;10.07;;;15.80;99.90;;;;;;4983473;28;20238;-87
2023/08/06 00:58:22;;;;;;;16.70;10.60;;;15.90;99.90;;;;;;4996981;28;20720;-87
2023/08/06 01:00:49;;;;;;;20.33;10.67;;;15.80;99.90;;;;;;4983587;28;20227;-85
2023/08/06 01:03:17;;;;;;;18.20;10.37;;;15.90;99.90;;;;;;4992877;28;20257;-85
2023/08/06 01:05:44;;;;;;;18.50;11.47;;;15.80;99.90;;;;;;4997350;28;20226;-85
2023/08/06 01:08:29;;;;;;;18.50;12.10;;;15.80;99.90;;;;;;5010209;28;20207;-86
2023/08/06 01:11:19;;;;;;;18.83;11.23;;;15.90;99.90;;;;;;5001252;28;20729;-85
2023/08/06 01:13:49;;;;;;;21.63;11.67;;;15.90;99.90;;;;;;4999613;28;20545;-86
2023/08/06 01:16:18;;;;;;;19.57;10.73;;;15.90;99.90;;;;;;5007275;28;20270;-86
2023/08/06 01:18:49;;;;;;;18.63;11.07;;;15.90;99.90;;;;;;5004847;28;20262;-86
2023/08/06 01:21:16;;;;;;;18.93;10.57;;;16.00;99.90;;;;;;5008719;28;20235;-86
2023/08/06 01:23:44;;;;;;;15.23;10.40;;;16.00;99.90;;;;;;5003480;28;20211;-86
2023/08/06 01:26:19;;;;;;;20.97;11.23;;;16.00;99.90;;;;;;4997404;28;20729;-86
2023/08/06 01:29:03;;;;;;;15.70;10.20;;;16.00;99.90;;;;;;5006363;28;20671;-86
2023/08/06 01:31:33;;;;;;;20.67;11.80;;;16.00;99.90;;;;;;5014087;28;20202;-86
2023/08/06 01:34:02;;;;;;;15.20;10.60;;;16.00;99.90;;;;;;5004682;28;20198;-86
2023/08/06 01:36:30;;;;;;;19.43;11.20;;;16.00;99.90;;;;;;4996984;28;20211;-86
2023/08/06 01:38:57;;;;;;;16.52;10.75;;;16.00;99.90;;;;;;4995987;28;20207;-86
2023/08/06 01:41:24;;;;;;;18.70;11.03;;;16.00;99.90;;;;;;4997934;28;20292;-86
2023/08/06 01:43:51;;;;;;;17.73;10.37;;;16.00;99.90;;;;;;4999315;28;20671;-84
2023/08/06 01:46:18;;;;;;;16.57;10.47;;;16.10;99.90;;;;;;5015675;28;20222;-86
2023/08/06 01:48:44;;;;;;;21.37;11.00;;;16.00;99.90;;;;;;5008423;28;20293;-85
2023/08/06 01:51:12;;;;;;;17.95;11.10;;;16.00;99.90;;;;;;5010483;28;20618;-85
2023/08/06 01:53:39;;;;;;;16.52;10.27;;;16.00;99.90;;;;;;5012444;28;20218;-86
2023/08/06 01:56:07;;;;;;;16.33;10.37;;;16.00;99.90;;;;;;5011610;28;20214;-85
2023/08/06 01:58:34;;;;;;;20.43;10.87;;;16.00;99.90;;;;;;5001546;28;20703;-85
2023/08/06 02:01:01;;;;;;;18.07;11.00;;;16.00;99.90;;;;;;4995747;28;20265;-84
2023/08/06 02:03:29;;;;;;;15.70;10.57;;;16.10;99.90;;;;;;5013683;28;20258;-85
2023/08/06 02:05:56;;;;;;;19.93;11.23;;;16.00;99.90;;;;;;5020085;28;20286;-86
2023/08/06 02:08:23;;;;;;;20.53;11.40;;;16.10;99.90;;;;;;5023724;28;20475;-87
2023/08/06 02:10:50;;;;;;;20.37;11.63;;;16.00;99.90;;;;;;5008314;28;20238;-87
2023/08/06 02:13:18;;;;;;;17.17;10.93;;;16.10;99.90;;;;;;5009214;28;20226;-86
2023/08/06 02:15:48;;;;;;;21.93;11.63;;;16.10;99.90;;;;;;5008027;28;20194;-87
2023/08/06 02:18:16;;;;;;;19.63;11.90;;;16.20;99.90;;;;;;5019442;28;20194;-87
2023/08/06 02:20:57;;;;;;;18.13;10.90;;;16.10;99.90;;;;;;5018889;28;20226;-85
2023/08/06 02:23:26;;;;;;;19.27;10.73;;;16.00;99.90;;;;;;5022466;28;20293;-87
2023/08/06 02:26:04;;;;;;;20.47;11.47;;;16.00;99.90;;;;;;5016024;28;20209;-87
2023/08/06 02:28:33;;;;;;;17.73;10.87;;;16.00;99.90;;;;;;5017413;28;20229;-87
2023/08/06 02:30:59;;;;;;;21.27;12.10;;;16.10;99.90;;;;;;5008914;28;20215;-88
2023/08/06 02:33:26;;;;;;;19.60;10.87;;;16.00;99.90;;;;;;4998517;28;20203;-88
2023/08/06 02:36:03;;;;;;;18.57;11.30;;;16.00;99.90;;;;;;5015781;28;20221;-87
2023/08/06 02:38:31;;;;;;;22.73;11.47;;;15.90;99.90;;;;;;5001480;28;20210;-88
2023/08/06 02:40:58;;;;;;;18.83;11.53;;;15.90;99.90;;;;;;5013673;28;20198;-88
2023/08/06 02:43:24;;;;;;;20.00;11.53;;;15.90;99.90;;;;;;5012781;28;20246;-88
2023/08/06 02:45:51;;;;;;;19.67;11.07;;;15.90;99.90;;;;;;5007093;28;20282;-88
2023/08/06 02:48:18;;;;;;;20.80;12.30;;;15.90;99.90;;;;;;5013999;28;20206;-88
2023/08/06 02:50:45;;;;;;;20.20;11.63;;;15.90;99.90;;;;;;5017564;28;20187;-88
2023/08/06 02:53:11;;;;;;;21.43;11.87;;;15.90;99.90;;;;;;4998743;28;20203;-87
2023/08/06 02:55:47;;;;;;;19.90;12.77;;;15.90;99.90;;;;;;5005583;28;20210;-87
2023/08/06 02:58:17;;;;;;;21.10;12.57;;;15.90;99.90;;;;;;5015215;28;20234;-85
2023/08/06 03:00:44;;;;;;;23.23;12.90;;;15.90;99.90;;;;;;5005719;28;20268;-89
2023/08/06 03:03:11;;;;;;;18.63;11.30;;;15.90;99.90;;;;;;5002558;28;20372;-86
2023/08/06 03:05:39;;;;;;;22.57;13.00;;;15.80;99.90;;;;;;5018426;28;20209;-87
2023/08/06 03:08:06;;;;;;;22.27;13.43;;;15.80;99.90;;;;;;5018383;28;20191;-85
2023/08/06 03:10:33;;;;;;;20.63;12.83;;;15.80;99.90;;;;;;4994524;28;20239;-85
2023/08/06 03:13:02;;;;;;;21.97;12.17;;;15.80;99.90;;;;;;5010838;28;20226;-85
2023/08/06 03:15:29;;;;;;;23.77;13.13;;;15.70;99.90;;;;;;5015626;28;20243;-85
2023/08/06 03:18:03;;;;;;;21.80;11.73;;;15.80;99.90;;;;;;5022714;28;20211;-86
2023/08/06 03:20:37;;;;;;;19.30;12.23;;;15.80;99.90;;;;;;5019387;28;20221;-87
2023/08/06 03:23:04;;;;;;;25.13;14.23;;;15.80;99.90;;;;;;5029698;28;20248;-88
2023/08/06 03:25:31;;;;;;;21.23;12.20;;;15.80;99.90;;;;;;5011731;28;20517;-90
2023/08/06 03:27:58;;;;;;;21.83;12.70;;;15.80;99.90;;;;;;5013673;28;20271;-88
2023/08/06 03:30:25;;;;;;;23.23;12.37;;;15.80;99.90;;;;;;5016179;28;20215;-88
2023/08/06 03:32:52;;;;;;;21.17;12.93;;;15.80;99.90;;;;;;5013472;28;20215;-87
2023/08/06 03:35:19;;;;;;;21.03;11.93;;;15.80;99.90;;;;;;5005732;28;20257;-89
2023/08/06 03:37:46;;;;;;;21.73;12.73;;;15.60;99.90;;;;;;5013302;28;20206;-89
2023/08/06 03:40:13;;;;;;;21.57;12.43;;;15.60;99.90;;;;;;5010631;28;20260;-88
2023/08/06 03:42:40;;;;;;;22.63;12.20;;;15.60;99.90;;;;;;5006053;28;20997;-87
2023/08/06 03:45:10;;;;;;;20.13;11.70;;;15.60;99.90;;;;;;5024713;28;20260;-87
2023/08/06 03:47:37;;;;;;;20.43;11.70;;;15.60;99.90;;;;;;5031888;28;20217;-87
2023/08/06 03:50:08;;;;;;;20.90;12.07;;;15.60;99.90;;;;;;5019303;28;20270;-86
2023/08/06 03:52:38;;;;;;;21.80;12.13;;;15.60;99.90;;;;;;5027432;28;20206;-87
2023/08/06 03:55:05;;;;;;;25.33;11.87;;;15.60;99.90;;;;;;5029618;28;20301;-86
2023/08/06 03:57:32;;;;;;;23.20;11.93;;;15.60;99.90;;;;;;5021699;28;20226;-88
2023/08/06 03:59:59;;;;;;;18.30;11.63;;;15.70;99.90;;;;;;5025153;28;20217;-85
2023/08/06 04:02:32;;;;;;;19.27;11.37;;;15.70;99.90;;;;;;5022455;28;20808;-88
2023/08/06 04:04:59;;;;;;;18.90;11.43;;;15.70;99.90;;;;;;5019257;28;20217;-87
2023/08/06 04:07:25;;;;;;;22.00;12.97;;;15.70;99.90;;;;;;5015982;28;20240;-87
2023/08/06 04:09:59;;;;;;;19.83;11.70;;;15.70;99.90;;;;;;5021362;28;20226;-87
2023/08/06 04:12:41;;;;;;;23.30;11.93;;;15.70;99.90;;;;;;4983565;28;20233;-90
2023/08/06 04:15:08;;;;;;;21.33;12.00;;;15.70;99.90;;;;;;4979932;28;20199;-87
2023/08/06 04:17:35;;;;;;;21.20;11.33;;;15.70;99.90;;;;;;5001237;28;20609;-89
2023/08/06 04:20:02;;;;;;;19.80;10.90;;;15.70;99.90;;;;;;4996459;28;20234;-88
2023/08/06 04:22:35;;;;;;;22.13;11.53;;;15.70;99.90;;;;;;4970551;28;20310;-88
2023/08/06 04:25:02;;;;;;;17.77;10.53;;;15.70;99.90;;;;;;4999829;28;20206;-87
2023/08/06 04:27:41;;;;;;;21.10;11.73;;;15.70;99.90;;;;;;4983028;28;20247;-89
2023/08/06 04:30:12;;;;;;;22.40;12.50;;;15.70;99.90;;;;;;5001232;28;20202;-87
2023/08/06 04:32:40;;;;;;;21.20;11.50;;;15.70;99.90;;;;;;4989363;28;20199;-88
2023/08/06 04:35:08;;;;;;;19.50;11.07;;;15.70;99.90;;;;;;4993056;28;20206;-87
2023/08/06 04:37:36;;;;;;;18.63;11.60;;;15.60;99.90;;;;;;5006287;28;20276;-87
2023/08/06 04:40:06;;;;;;;23.50;11.40;;;15.70;99.90;;;;;;4984465;28;20207;-87
2023/08/06 04:42:33;;;;;;;19.77;10.63;;;15.70;99.90;;;;;;4985587;28;20239;-88
2023/08/06 04:45:08;;;;;;;16.30;10.97;;;15.80;99.90;;;;;;5011777;28;20215;-86
2023/08/06 04:47:35;;;;;;;17.23;11.13;;;15.80;99.90;;;;;;4991580;28;20203;-87
2023/08/06 04:50:03;;;;;;;16.33;10.07;;;15.70;99.90;;;;;;5015246;28;20214;-87
2023/08/06 04:52:32;;;;;;;21.40;11.40;;;15.80;99.90;;;;;;4993621;28;20187;-87
2023/08/06 04:54:58;;;;;;;20.57;11.90;;;15.80;99.90;;;;;;5000557;28;20261;-87
2023/08/06 04:57:27;;;;;;;20.43;11.23;;;15.80;99.90;;;;;;4992517;28;20211;-88
2023/08/06 04:59:54;;;;;;;18.27;11.23;;;15.80;99.90;;;;;;4979285;28;20210;-88
2023/08/06 05:02:22;;;;;;;23.00;11.90;;;15.80;99.90;;;;;;4995505;28;20230;-87
2023/08/06 05:04:49;;;;;;;20.13;10.93;;;15.80;99.90;;;;;;4976819;28;20258;-89
2023/08/06 05:07:16;;;;;;;16.57;11.00;;;15.80;99.90;;;;;;4975965;28;20209;-88
2023/08/06 05:09:43;;;;;;;17.45;10.90;;;15.80;99.90;;;;;;4982355;28;20227;-88
2023/08/06 05:12:10;;;;;;;18.23;11.05;;;15.80;99.90;;;;;;5015742;28;20595;-88
2023/08/06 05:14:36;;;;;;;19.92;12.25;;;15.80;99.90;;;;;;5014411;28;20241;-88
2023/08/06 05:17:04;;;;;;;18.63;11.48;;;15.90;99.90;;;;;;5014260;28;20254;-88
2023/08/06 05:19:31;;;;;;;22.33;12.43;;;15.90;99.90;;;;;;5013058;28;20194;-89
2023/08/06 05:21:58;;;;;;;18.50;11.77;;;15.90;99.90;;;;;;5010985;28;20705;-88
2023/08/06 05:24:25;;;;;;;20.15;13.10;;;15.90;99.90;;;;;;5000718;28;20199;-87
2023/08/06 05:26:52;;;;;;;19.83;11.80;;;15.90;99.90;;;;;;5007188;28;20226;-89
2023/08/06 05:29:19;;;;;;;18.95;10.75;;;16.00;99.90;;;;;;5007485;28;20198;-90
2023/08/06 05:31:46;;;;;;;20.65;12.13;;;16.00;99.90;;;;;;5012576;28;20202;-87
2023/08/06 05:34:13;;;;;;;19.98;11.55;;;16.00;99.90;;;;;;5012716;28;20615;-87
2023/08/06 05:36:41;;;;;;;19.95;12.02;;;16.00;99.90;;;;;;5013526;28;20218;-89
2023/08/06 05:39:08;;;;;;;20.27;11.73;;;16.00;99.90;;;;;;5011880;28;20237;-88
2023/08/06 05:41:34;;;;;;;20.90;12.67;;;16.20;99.90;;;;;;5012569;28;20241;-88
2023/08/06 05:44:01;;;;;;;21.55;12.07;;;16.10;99.90;;;;;;5011965;28;20230;-87
2023/08/06 05:46:30;;;;;;;21.15;12.18;;;16.10;99.90;;;;;;5011907;28;20217;-90
2023/08/06 05:48:57;;;;;;;19.33;10.85;;;16.20;99.90;;;;;;5012337;28;20482;-88
2023/08/06 05:51:25;;;;;;;20.92;11.52;;;16.10;99.90;;;;;;5012914;28;20250;-89
2023/08/06 05:53:52;;;;;;;21.52;12.63;;;16.20;99.90;;;;;;5013417;28;20202;-87
2023/08/06 05:56:19;;;;;;;21.02;12.40;;;16.20;99.90;;;;;;5013789;28;20290;-87
2023/08/06 05:58:47;;;;;;;18.27;10.60;;;16.30;99.90;;;;;;5012671;28;20211;-88
2023/08/06 06:01:14;;;;;;;19.75;12.63;;;16.20;99.90;;;;;;5011521;28;20282;-87
2023/08/06 06:03:41;;;;;;;17.75;11.43;;;16.20;99.90;;;;;;5011615;28;20234;-88
2023/08/06 06:06:11;;;;;;;16.98;11.43;;;16.20;99.90;;;;;;5012567;28;20673;-87
2023/08/06 06:08:37;;;;;;;20.88;11.15;;;16.30;99.90;;;;;;5013839;28;20202;-88
2023/08/06 06:11:05;;;;;;;16.23;10.98;;;16.30;99.90;;;;;;5012335;28;20597;-90
2023/08/06 06:13:32;;;;;;;16.42;11.30;;;16.50;99.90;;;;;;5010654;28;20226;-88
2023/08/06 06:15:59;;;;;;;19.80;12.25;;;16.40;99.90;;;;;;5014000;28;20265;-88
2023/08/06 06:18:26;;;;;;;17.10;11.02;;;16.50;99.90;;;;;;5012073;28;20202;-87
2023/08/06 06:20:53;;;;;;;16.60;10.38;;;16.50;99.90;;;;;;5009862;28;20207;-89
2023/08/06 06:23:20;;;;;;;14.82;10.18;;;16.50;99.90;;;;;;5010109;28;20242;-88
2023/08/06 06:25:49;;;;;;;16.20;10.60;;;16.60;99.90;;;;;;5010573;28;20289;-87
2023/08/06 06:28:16;;;;;;;19.42;11.30;;;16.60;99.90;;;;;;4999952;28;20214;-87
2023/08/06 06:30:43;;;;;;;21.02;11.13;;;16.70;99.90;;;;;;5011362;28;20206;-90
2023/08/06 06:33:10;;;;;;;17.70;10.95;;;16.80;99.90;;;;;;5010711;28;20206;-87
2023/08/06 06:35:37;;;;;;;16.48;10.50;;;16.90;99.90;;;;;;5011393;28;20206;-88
2023/08/06 06:38:05;;;;;;;17.58;11.13;;;17.00;99.90;;;;;;5011465;28;20203;-82
2023/08/06 06:40:33;;;;;;;20.65;11.73;;;16.90;99.90;;;;;;5013849;28;20552;-89
2023/08/06 06:43:04;;;;;;;18.17;11.30;;;16.90;99.90;;;;;;5015857;28;20230;-88
2023/08/06 06:45:34;;;;;;;16.20;10.73;;;17.00;99.90;;;;;;5016904;28;20198;-85
2023/08/06 06:48:04;;;;;;;18.35;11.00;;;17.10;99.90;;;;;;5018630;28;20217;-88
2023/08/06 06:50:31;;;;;;;16.77;11.30;;;17.10;99.90;;;;;;5016714;28;20210;-87
2023/08/06 06:52:57;;;;;;;20.23;10.38;;;17.20;99.90;;;;;;5018458;28;20202;-87
2023/08/06 06:55:24;;;;;;;15.18;10.27;;;17.20;99.90;;;;;;5013852;28;20213;-87
2023/08/06 06:57:51;;;;;;;17.30;10.95;;;17.30;99.90;;;;;;5009524;28;20672;-85
2023/08/06 07:00:18;;;;;;;16.88;10.90;;;17.40;99.90;;;;;;5007904;28;20206;-90
2023/08/06 07:02:45;;;;;;;18.27;11.05;;;17.30;99.90;;;;;;5012901;28;20234;-88
2023/08/06 07:05:12;;;;;;;15.23;10.18;;;17.30;99.90;;;;;;5012288;28;20546;-89
2023/08/06 07:07:39;;;;;;;16.83;10.98;;;17.20;99.90;;;;;;5014224;28;20218;-88
2023/08/06 07:10:06;;;;;;;17.73;11.05;;;17.20;99.90;;;;;;5014644;28;20281;-89
2023/08/06 07:12:33;;;;;;;15.95;11.48;;;17.20;99.90;;;;;;5014777;28;20664;-86
2023/08/06 07:15:00;;;;;;;17.15;10.93;;;17.20;99.90;;;;;;5011736;28;20369;-88
2023/08/06 07:17:27;;;;;;;20.77;12.32;;;17.20;99.90;;;;;;5012357;28;20237;-88
2023/08/06 07:19:54;;;;;;;14.10;9.85;;;17.20;99.90;;;;;;5012476;28;20286;-87
2023/08/06 07:22:21;;;;;;;18.80;11.30;;;17.30;99.90;;;;;;5011248;28;20229;-86
2023/08/06 07:24:49;;;;;;;17.10;11.90;;;17.30;99.90;;;;;;5012063;28;20652;-87
2023/08/06 07:27:16;;;;;;;16.30;12.02;;;17.30;99.90;;;;;;5011500;28;20234;-88
2023/08/06 07:29:43;;;;;;;14.63;10.13;;;17.40;99.90;;;;;;5010006;28;20203;-88
2023/08/06 07:32:09;;;;;;;15.48;11.07;;;17.40;99.90;;;;;;5010685;28;20638;-88
2023/08/06 07:34:36;;;;;;;19.48;11.48;;;17.60;99.90;;;;;;5009561;28;20199;-88
2023/08/06 07:37:03;;;;;;;19.35;11.90;;;17.70;99.90;;;;;;5010538;28;20591;-89
2023/08/06 07:39:30;;;;;;;17.15;10.80;;;17.80;99.90;;;;;;5012432;28;20667;-87
2023/08/06 07:41:57;;;;;;;17.63;12.00;;;17.80;99.90;;;;;;5014757;28;20324;-86
2023/08/06 07:44:24;;;;;;;15.48;10.68;;;18.10;99.90;;;;;;5012863;28;20234;-87
2023/08/06 07:46:51;;;;;;;14.75;9.43;;;18.20;99.90;;;;;;5011947;28;20213;-86
2023/08/06 07:49:18;;;;;;;14.05;9.82;;;18.50;99.90;;;;;;5005765;28;20207;-86
2023/08/06 07:51:46;;;;;;;12.25;10.00;;;18.60;99.90;;;;;;5001717;28;20227;-88
2023/08/06 07:54:13;;;;;;;13.55;10.90;;;18.80;99.90;;;;;;5009518;28;20225;-89
2023/08/06 07:56:40;;;;;;;14.77;9.27;;;19.00;99.90;;;;;;5006809;28;20214;-88
2023/08/06 07:59:07;;;;;;;13.85;8.50;;;19.10;99.90;;;;;;5010450;28;20210;-87
2023/08/06 08:01:33;;;;;;;13.90;9.63;;;19.20;99.90;;;;;;4999023;28;20222;-88
2023/08/06 08:04:00;;;;;;;12.48;8.00;;;19.30;99.90;;;;;;5008884;28;20682;-88
2023/08/06 08:06:27;;;;;;;12.32;9.07;;;19.50;99.90;;;;;;5012838;28;20564;-87
2023/08/06 08:08:55;;;;;;;10.88;8.38;;;19.60;99.90;;;;;;5001160;28;20297;-87
2023/08/06 08:11:22;;;;;;;10.45;8.43;;;19.60;99.90;;;;;;5008409;28;20222;-87
2023/08/06 08:13:49;;;;;;;10.32;7.90;;;19.80;99.90;;;;;;5003527;28;20210;-87
2023/08/06 08:16:16;;;;;;;11.23;8.18;;;19.90;99.90;;;;;;5017988;28;20234;-87
2023/08/06 08:18:43;;;;;;;12.27;8.15;;;19.90;99.90;;;;;;5023333;28;20211;-86
2023/08/06 08:21:10;;;;;;;10.15;7.63;;;20.00;99.90;;;;;;5018654;28;20269;-88
2023/08/06 08:23:39;;;;;;;10.93;7.90;;;20.10;99.90;;;;;;5018886;28;20253;-86
2023/08/06 08:26:06;;;;;;;12.38;7.88;;;20.10;99.90;;;;;;5017110;28;20211;-84
2023/08/06 08:28:32;;;;;;;9.60;7.68;;;20.10;99.90;;;;;;5012392;28;20223;-84
2023/08/06 08:30:59;;;;;;;9.93;7.93;;;20.10;99.90;;;;;;5024261;28;20202;-85
2023/08/06 08:33:26;;;;;;;11.60;8.32;;;20.10;99.90;;;;;;5024344;28;20241;-86
2023/08/06 08:35:53;;;;;;;10.57;8.27;;;20.10;99.90;;;;;;5019288;28;20207;-84
2023/08/06 08:38:20;;;;;;;10.68;8.55;;;20.20;99.90;;;;;;5024898;28;20206;-84
2023/08/06 08:40:52;;;;;;;10.02;7.90;;;20.40;99.90;;;;;;5024472;28;20285;-86
2023/08/06 08:43:21;;;;;;;10.73;7.63;;;20.50;99.90;;;;;;5024722;28;20234;-84
2023/08/06 08:45:51;;;;;;;10.07;7.97;;;20.50;99.90;;;;;;5009340;28;20203;-85
2023/08/06 08:48:19;;;;;;;9.25;7.78;;;20.60;99.90;;;;;;5017787;28;20717;-83
2023/08/06 08:50:48;;;;;;;7.70;6.55;;;20.70;99.90;;;;;;5019245;28;20283;-86
2023/08/06 08:53:16;;;;;;;10.65;6.95;;;20.70;99.90;;;;;;5029099;28;20203;-83
2023/08/06 08:55:49;;;;;;;8.70;6.78;;;20.80;99.90;;;;;;5026176;28;20207;-82
2023/08/06 08:58:16;;;;;;;11.13;8.52;;;20.80;99.90;;;;;;5023055;28;20696;-85
2023/08/06 09:00:45;;;;;;;10.27;7.95;;;21.00;99.90;;;;;;5025543;28;20798;-86
2023/08/06 09:03:12;;;;;;;11.40;7.97;;;21.00;99.90;;;;;;5016192;28;20234;-83
2023/08/06 09:05:43;;;;;;;11.85;8.02;;;20.90;99.90;;;;;;5022700;28;20627;-85
2023/08/06 09:08:16;;;;;;;14.02;8.48;;;20.90;99.90;;;;;;5016496;28;20675;-83
2023/08/06 09:10:43;;;;;;;13.98;9.25;;;20.80;99.90;;;;;;5014921;28;20230;-82
2023/08/06 09:13:13;;;;;;;15.27;9.75;;;20.70;99.90;;;;;;5014470;28;20249;-82
2023/08/06 09:15:40;;;;;;;15.52;11.05;;;20.50;99.90;;;;;;5011084;28;20207;-83
2023/08/06 09:18:11;;;;;;;13.30;10.43;;;20.30;99.90;;;;;;5010966;28;20686;-84
2023/08/06 09:20:41;;;;;;;16.10;11.55;;;20.20;99.90;;;;;;5012360;28;20217;-84
2023/08/06 09:23:09;;;;;;;13.10;10.55;;;20.20;99.90;;;;;;5000512;28;20227;-84
2023/08/06 09:25:40;;;;;;;15.23;10.75;;;20.20;99.90;;;;;;5013964;28;20426;-84
2023/08/06 09:28:07;;;;;;;16.08;11.35;;;20.10;99.90;;;;;;5010777;28;20272;-83
2023/08/06 09:30:36;;;;;;;17.52;12.93;;;20.00;99.90;;;;;;5011521;28;20195;-81
2023/08/06 09:33:08;;;;;;;17.20;12.55;;;19.90;99.90;;;;;;5011815;28;20210;-83
2023/08/06 09:35:35;;;;;;;19.67;12.88;;;19.80;99.90;;;;;;5011170;28;20217;-85
2023/08/06 09:38:13;;;;;;;17.50;12.85;;;19.70;99.90;;;;;;5009573;28;20206;-89
2023/08/06 09:40:40;;;;;;;15.43;12.77;;;19.70;99.90;;;;;;4996786;28;20205;-83
2023/08/06 09:43:11;;;;;;;18.08;13.48;;;19.70;99.90;;;;;;5006300;28;20236;-85
2023/08/06 09:45:38;;;;;;;17.88;12.38;;;19.80;99.90;;;;;;5006602;28;20210;-82
2023/08/06 09:48:07;;;;;;;20.58;13.10;;;19.90;99.90;;;;;;5004757;28;20206;-83
2023/08/06 09:50:37;;;;;;;17.17;12.90;;;19.90;99.90;;;;;;5010222;28;20605;-82
2023/08/06 09:53:06;;;;;;;19.92;12.88;;;20.10;99.90;;;;;;5008518;28;20214;-84
2023/08/06 09:55:33;;;;;;;17.15;12.63;;;20.10;99.90;;;;;;5006999;28;20195;-82
2023/08/06 09:58:01;;;;;;;14.27;10.55;;;20.30;99.90;;;;;;5009206;28;20261;-83
2023/08/06 10:00:29;;;;;;;15.07;10.45;;;20.40;99.90;;;;;;5005423;28;20215;-82
2023/08/06 10:03:00;;;;;;;14.32;10.98;;;20.50;99.90;;;;;;5006494;28;20199;-85
2023/08/06 10:05:28;;;;;;;13.35;10.43;;;20.50;99.90;;;;;;4995951;28;20571;-86
2023/08/06 10:07:57;;;;;;;13.77;10.23;;;20.60;99.90;;;;;;5009089;28;20663;-82
2023/08/06 10:10:24;;;;;;;13.43;10.38;;;20.70;99.90;;;;;;5006718;28;20446;-82
2023/08/06 10:13:01;;;;;;;13.95;9.52;;;20.70;99.90;;;;;;5003976;28;20794;-84
2023/08/06 10:15:31;;;;;;;13.52;9.98;;;20.80;99.90;;;;;;5000974;28;20659;-81
2023/08/06 10:18:00;;;;;;;13.38;10.23;;;20.90;99.90;;;;;;4996741;28;20278;-82
2023/08/06 10:20:33;;;;;;;12.38;9.35;;;20.80;99.90;;;;;;4994033;28;20679;-82
2023/08/06 10:23:05;;;;;;;11.75;9.40;;;20.70;99.90;;;;;;5008329;28;20229;-80
2023/08/06 10:25:34;;;;;;;11.10;8.88;;;20.60;99.90;;;;;;5010451;28;20233;-82
2023/08/06 10:28:08;;;;;;;11.15;8.48;;;20.60;99.90;;;;;;5003175;28;20219;-82
2023/08/06 10:30:43;;;;;;;10.65;8.45;;;20.60;99.90;;;;;;5006577;28;20198;-80
2023/08/06 10:33:10;;;;;;;9.43;8.10;;;20.70;99.90;;;;;;5010266;28;20206;-81
2023/08/06 10:35:44;;;;;;;10.38;6.90;;;20.80;99.90;;;;;;5010469;28;20547;-80
2023/08/06 10:38:15;;;;;;;7.75;6.53;;;20.90;99.90;;;;;;4998154;28;20276;-82
2023/08/06 10:40:53;;;;;;;9.05;7.07;;;20.90;99.90;;;;;;5000731;28;20636;-81
2023/08/06 10:43:29;;;;;;;8.57;7.05;;;21.00;99.90;;;;;;5016876;28;20309;-81
2023/08/06 10:45:58;;;;;;;7.43;6.65;;;21.10;99.90;;;;;;5033963;28;20258;-82
2023/08/06 10:48:33;;;;;;;8.75;6.88;;;21.10;99.90;;;;;;5034565;28;20270;-82
2023/08/06 10:51:01;;;;;;;8.23;6.15;;;21.10;99.90;;;;;;5031145;28;20209;-80
2023/08/06 10:53:29;;;;;;;7.30;6.50;;;21.20;99.90;;;;;;5021469;28;20218;-80
2023/08/06 10:56:00;;;;;;;8.95;5.30;;;21.40;99.90;;;;;;5018489;28;20328;-82
2023/08/06 10:58:33;;;;;;;6.13;5.50;;;21.50;99.90;;;;;;5013632;28;20222;-81
2023/08/06 11:01:00;;;;;;;5.75;5.13;;;21.70;99.90;;;;;;5008628;28;20217;-82
2023/08/06 11:03:28;;;;;;;7.38;5.82;;;21.80;99.90;;;;;;5009889;28;20218;-81
2023/08/06 11:05:55;;;;;;;4.53;4.13;;;21.70;99.90;;;;;;5010874;28;20214;-81
2023/08/06 11:08:32;;;;;;;5.03;4.50;;;21.70;99.90;;;;;;5010078;28;20211;-81
2023/08/06 11:11:13;;;;;;;6.13;5.03;;;21.70;99.90;;;;;;5006834;28;20234;-81
2023/08/06 11:13:42;;;;;;;5.65;4.75;;;21.70;99.90;;;;;;5009415;28;20293;-81
2023/08/06 11:16:10;;;;;;;5.65;5.13;;;21.60;99.90;;;;;;5005271;28;20377;-79
2023/08/06 11:18:37;;;;;;;6.78;5.10;;;21.50;99.90;;;;;;5006664;28;20575;-80
2023/08/06 11:21:05;;;;;;;7.43;6.30;;;21.50;99.90;;;;;;5005062;28;20215;-81
2023/08/06 11:23:31;;;;;;;6.45;5.78;;;21.40;99.90;;;;;;5004460;28;20207;-81
2023/08/06 11:25:58;;;;;;;6.90;6.00;;;21.50;99.90;;;;;;4997466;28;20198;-81
2023/08/06 11:28:25;;;;;;;6.47;5.38;;;21.60;99.90;;;;;;5007793;28;20210;-80
2023/08/06 11:30:53;;;;;;;6.47;5.05;;;21.70;99.90;;;;;;4997737;28;20206;-81
2023/08/06 11:33:26;;;;;;;6.95;5.50;;;21.70;99.90;;;;;;5005355;28;20665;-81
2023/08/06 11:35:58;;;;;;;7.90;5.60;;;21.70;99.90;;;;;;4994749;28;20209;-79
2023/08/06 11:38:26;;;;;;;6.07;5.47;;;21.70;99.90;;;;;;4995985;28;20202;-80
2023/08/06 11:40:54;;;;;;;7.20;5.93;;;21.90;99.90;;;;;;5001931;28;20262;-81
2023/08/06 11:43:22;;;;;;;7.00;5.60;;;21.90;99.90;;;;;;5006044;28;20216;-81
2023/08/06 11:45:50;;;;;;;5.50;5.00;;;22.00;99.90;;;;;;4998110;28;20289;-81
2023/08/06 11:48:18;;;;;;;6.43;5.28;;;21.90;99.90;;;;;;5006279;28;20290;-80
2023/08/06 11:50:45;;;;;;;6.95;5.65;;;21.90;99.90;;;;;;5007006;28;20198;-80
2023/08/06 11:53:14;;;;;;;6.90;5.40;;;22.00;99.90;;;;;;4999186;28;20317;-82
2023/08/06 11:55:42;;;;;;;5.15;4.45;;;22.00;99.90;;;;;;5001795;28;20233;-79
2023/08/06 11:58:15;;;;;;;5.57;4.90;;;22.00;99.90;;;;;;5006463;28;20430;-78
2023/08/06 12:00:42;;;;;;;5.10;4.60;;;22.00;99.90;;;;;;5007576;28;20198;-79
2023/08/06 12:03:10;;;;;;;5.07;4.53;;;22.00;99.90;;;;;;5008613;28;20671;-79
2023/08/06 12:05:38;;;;;;;5.57;4.57;;;22.00;99.90;;;;;;5008524;28;20753;-80
2023/08/06 12:08:05;;;;;;;6.18;4.85;;;22.00;99.90;;;;;;5009048;28;20221;-80
2023/08/06 12:10:35;;;;;;;6.85;4.50;;;22.00;99.90;;;;;;5008631;28;20238;-80
2023/08/06 12:13:03;;;;;;;5.07;4.07;;;22.10;99.90;;;;;;4990840;28;20226;-79
2023/08/06 12:15:32;;;;;;;4.70;4.18;;;22.10;99.90;;;;;;5008695;28;20206;-79
2023/08/06 12:17:59;;;;;;;5.68;4.60;;;22.10;99.90;;;;;;5008506;28;20570;-79
2023/08/06 12:20:28;;;;;;;5.05;4.55;;;22.10;99.90;;;;;;4992525;28;20674;-79
2023/08/06 12:22:55;;;;;;;3.35;3.00;;;22.00;99.90;;;;;;5008649;28;20236;-80
2023/08/06 12:25:23;;;;;;;3.38;3.00;;;21.50;99.90;;;;;;5008559;28;20245;-80
2023/08/06 12:27:50;;;;;;;3.25;2.70;;;21.10;99.90;;;;;;4991011;28;20219;-78
2023/08/06 12:30:17;;;;;;;3.65;2.45;;;20.80;99.90;;;;;;4975579;28;20313;-79
2023/08/06 12:32:44;;;;;;;2.35;2.08;;;20.40;99.90;;;;;;5008817;28;20206;-81
2023/08/06 12:35:11;;;;;;;2.80;2.33;;;20.10;99.90;;;;;;5008731;28;20210;-78
2023/08/06 12:37:38;;;;;;;2.50;2.13;;;19.80;99.90;;;;;;5008149;28;20210;-79
2023/08/06 12:40:06;;;;;;;2.53;2.17;;;19.50;99.90;;;;;;4991367;28;20294;-78